sensor_id;sensor_type;location;lat;lon;timestamp;P1;durP1;ratioP1;P2;durP2;ratioP2
46753;SDS011;32500;50.620;3.400;2023-02-27T00:01:06;54.40;;;45.75;;
46753;SDS011;32500;50.620;3.400;2023-02-27T00:03:32;53.92;;;45.42;;
46753;SDS011;32500;50.620;3.400;2023-02-27T00:05:57;56.65;;;45.88;;
46753;SDS011;32500;50.620;3.400;2023-02-27T00:08:23;56.92;;;45.97;;
46753;SDS011;32500;50.620;3.400;2023-02-27T00:10:49;55.67;;;45.55;;
46753;SDS011;32500;50.620;3.400;2023-02-27T00:13:15;56.25;;;45.85;;
46753;SDS011;32500;50.620;3.400;2023-02-27T00:15:40;55.17;;;45.80;;
46753;SDS011;32500;50.620;3.400;2023-02-27T00:18:10;56.08;;;45.95;;
46753;SDS011;32500;50.620;3.400;2023-02-27T00:20:35;55.88;;;45.75;;
46753;SDS011;32500;50.620;3.400;2023-02-27T00:23:05;54.42;;;45.63;;
46753;SDS011;32500;50.620;3.400;2023-02-27T00:25:32;54.25;;;45.35;;
46753;SDS011;32500;50.620;3.400;2023-02-27T00:27:59;54.92;;;45.55;;
46753;SDS011;32500;50.620;3.400;2023-02-27T00:30:25;54.65;;;45.60;;
46753;SDS011;32500;50.620;3.400;2023-02-27T00:32:51;55.60;;;45.47;;
46753;SDS011;32500;50.620;3.400;2023-02-27T00:35:18;55.40;;;45.70;;
46753;SDS011;32500;50.620;3.400;2023-02-27T00:37:43;54.92;;;45.53;;
46753;SDS011;32500;50.620;3.400;2023-02-27T00:40:09;55.90;;;45.88;;
46753;SDS011;32500;50.620;3.400;2023-02-27T00:42:35;54.50;;;45.78;;
46753;SDS011;32500;50.620;3.400;2023-02-27T00:45:01;55.00;;;45.95;;
46753;SDS011;32500;50.620;3.400;2023-02-27T00:47:28;56.95;;;46.05;;
46753;SDS011;32500;50.620;3.400;2023-02-27T00:49:54;56.40;;;45.63;;
46753;SDS011;32500;50.620;3.400;2023-02-27T00:52:19;56.20;;;46.03;;
46753;SDS011;32500;50.620;3.400;2023-02-27T00:54:45;55.70;;;45.78;;
46753;SDS011;32500;50.620;3.400;2023-02-27T00:57:11;56.15;;;45.80;;
46753;SDS011;32500;50.620;3.400;2023-02-27T00:59:37;54.70;;;45.55;;
46753;SDS011;32500;50.620;3.400;2023-02-27T01:02:02;54.83;;;45.50;;
46753;SDS011;32500;50.620;3.400;2023-02-27T01:04:28;56.10;;;45.72;;
46753;SDS011;32500;50.620;3.400;2023-02-27T01:06:54;54.38;;;45.47;;
46753;SDS011;32500;50.620;3.400;2023-02-27T01:09:19;54.15;;;45.45;;
46753;SDS011;32500;50.620;3.400;2023-02-27T01:11:45;54.10;;;45.42;;
46753;SDS011;32500;50.620;3.400;2023-02-27T01:14:11;55.35;;;45.78;;
46753;SDS011;32500;50.620;3.400;2023-02-27T01:16:36;54.95;;;45.53;;
46753;SDS011;32500;50.620;3.400;2023-02-27T01:19:02;55.70;;;45.90;;
46753;SDS011;32500;50.620;3.400;2023-02-27T01:21:28;54.35;;;45.65;;
46753;SDS011;32500;50.620;3.400;2023-02-27T01:23:54;54.17;;;45.50;;
46753;SDS011;32500;50.620;3.400;2023-02-27T01:26:20;54.72;;;45.72;;
46753;SDS011;32500;50.620;3.400;2023-02-27T01:28:45;55.33;;;45.67;;
46753;SDS011;32500;50.620;3.400;2023-02-27T01:31:11;54.00;;;45.47;;
46753;SDS011;32500;50.620;3.400;2023-02-27T01:33:36;54.00;;;45.45;;
46753;SDS011;32500;50.620;3.400;2023-02-27T01:36:02;55.38;;;45.70;;
46753;SDS011;32500;50.620;3.400;2023-02-27T01:38:28;55.90;;;45.47;;
46753;SDS011;32500;50.620;3.400;2023-02-27T01:40:54;54.83;;;45.65;;
46753;SDS011;32500;50.620;3.400;2023-02-27T01:43:21;53.88;;;45.15;;
46753;SDS011;32500;50.620;3.400;2023-02-27T01:45:48;54.45;;;45.30;;
46753;SDS011;32500;50.620;3.400;2023-02-27T01:48:47;55.20;;;45.70;;
46753;SDS011;32500;50.620;3.400;2023-02-27T01:51:07;54.33;;;45.35;;
46753;SDS011;32500;50.620;3.400;2023-02-27T01:53:38;57.35;;;45.50;;
46753;SDS011;32500;50.620;3.400;2023-02-27T01:56:10;55.78;;;45.47;;
46753;SDS011;32500;50.620;3.400;2023-02-27T01:58:40;54.05;;;45.55;;
46753;SDS011;32500;50.620;3.400;2023-02-27T02:01:07;53.80;;;45.25;;
46753;SDS011;32500;50.620;3.400;2023-02-27T02:03:41;54.40;;;45.53;;
46753;SDS011;32500;50.620;3.400;2023-02-27T02:06:25;54.10;;;45.63;;
46753;SDS011;32500;50.620;3.400;2023-02-27T02:08:53;54.35;;;45.35;;
46753;SDS011;32500;50.620;3.400;2023-02-27T02:11:20;54.75;;;45.45;;
46753;SDS011;32500;50.620;3.400;2023-02-27T02:13:48;53.38;;;45.28;;
46753;SDS011;32500;50.620;3.400;2023-02-27T02:25:04;54.28;;;45.45;;
46753;SDS011;32500;50.620;3.400;2023-02-27T02:27:55;54.22;;;45.42;;
46753;SDS011;32500;50.620;3.400;2023-02-27T02:31:06;53.55;;;45.28;;
46753;SDS011;32500;50.620;3.400;2023-02-27T02:38:51;54.13;;;45.42;;
46753;SDS011;32500;50.620;3.400;2023-02-27T02:46:29;54.58;;;45.60;;
46753;SDS011;32500;50.620;3.400;2023-02-27T02:49:00;52.92;;;45.35;;
46753;SDS011;32500;50.620;3.400;2023-02-27T02:51:50;53.28;;;45.60;;
46753;SDS011;32500;50.620;3.400;2023-02-27T02:54:24;53.25;;;45.08;;
46753;SDS011;32500;50.620;3.400;2023-02-27T03:02:18;53.78;;;45.42;;
46753;SDS011;32500;50.620;3.400;2023-02-27T03:04:57;54.63;;;45.65;;
46753;SDS011;32500;50.620;3.400;2023-02-27T03:10:15;53.80;;;45.05;;
46753;SDS011;32500;50.620;3.400;2023-02-27T03:15:15;53.73;;;45.33;;
46753;SDS011;32500;50.620;3.400;2023-02-27T03:18:29;53.63;;;45.47;;
46753;SDS011;32500;50.620;3.400;2023-02-27T03:20:31;53.00;;;45.28;;
46753;SDS011;32500;50.620;3.400;2023-02-27T03:23:04;54.07;;;45.43;;
46753;SDS011;32500;50.620;3.400;2023-02-27T03:25:35;54.35;;;45.20;;
46753;SDS011;32500;50.620;3.400;2023-02-27T03:28:04;53.67;;;45.40;;
46753;SDS011;32500;50.620;3.400;2023-02-27T03:31:16;54.13;;;45.15;;
46753;SDS011;32500;50.620;3.400;2023-02-27T03:33:41;54.20;;;45.75;;
46753;SDS011;32500;50.620;3.400;2023-02-27T03:36:19;54.75;;;45.35;;
46753;SDS011;32500;50.620;3.400;2023-02-27T03:39:06;53.50;;;45.50;;
46753;SDS011;32500;50.620;3.400;2023-02-27T03:46:57;54.65;;;45.38;;
46753;SDS011;32500;50.620;3.400;2023-02-27T03:49:23;53.30;;;45.33;;
46753;SDS011;32500;50.620;3.400;2023-02-27T03:51:48;54.90;;;45.23;;
46753;SDS011;32500;50.620;3.400;2023-02-27T03:54:15;53.42;;;44.97;;
46753;SDS011;32500;50.620;3.400;2023-02-27T03:59:20;54.30;;;45.33;;
46753;SDS011;32500;50.620;3.400;2023-02-27T04:01:47;53.55;;;45.58;;
46753;SDS011;32500;50.620;3.400;2023-02-27T04:04:15;54.58;;;45.47;;
46753;SDS011;32500;50.620;3.400;2023-02-27T04:06:47;53.13;;;45.13;;
46753;SDS011;32500;50.620;3.400;2023-02-27T04:15:13;56.80;;;45.27;;
46753;SDS011;32500;50.620;3.400;2023-02-27T04:20:31;52.57;;;45.10;;
46753;SDS011;32500;50.620;3.400;2023-02-27T04:23:05;52.67;;;44.92;;
46753;SDS011;32500;50.620;3.400;2023-02-27T04:28:25;53.37;;;45.37;;
46753;SDS011;32500;50.620;3.400;2023-02-27T04:31:00;52.90;;;44.97;;
46753;SDS011;32500;50.620;3.400;2023-02-27T04:33:49;52.93;;;45.20;;
46753;SDS011;32500;50.620;3.400;2023-02-27T04:39:04;55.50;;;45.27;;
46753;SDS011;32500;50.620;3.400;2023-02-27T04:41:54;52.80;;;45.30;;
46753;SDS011;32500;50.620;3.400;2023-02-27T04:44:27;52.63;;;44.95;;
46753;SDS011;32500;50.620;3.400;2023-02-27T04:46:56;52.70;;;45.17;;
46753;SDS011;32500;50.620;3.400;2023-02-27T04:49:28;55.10;;;45.53;;
46753;SDS011;32500;50.620;3.400;2023-02-27T04:52:00;54.97;;;45.53;;
46753;SDS011;32500;50.620;3.400;2023-02-27T04:54:56;53.70;;;45.20;;
46753;SDS011;32500;50.620;3.400;2023-02-27T04:57:37;53.33;;;45.30;;
46753;SDS011;32500;50.620;3.400;2023-02-27T05:00:11;53.90;;;45.10;;
46753;SDS011;32500;50.620;3.400;2023-02-27T05:02:43;53.80;;;45.20;;
46753;SDS011;32500;50.620;3.400;2023-02-27T05:05:15;54.17;;;45.23;;
46753;SDS011;32500;50.620;3.400;2023-02-27T05:07:55;53.80;;;45.40;;
46753;SDS011;32500;50.620;3.400;2023-02-27T05:10:29;51.83;;;44.83;;
46753;SDS011;32500;50.620;3.400;2023-02-27T05:13:02;54.72;;;45.22;;
46753;SDS011;32500;50.620;3.400;2023-02-27T05:15:37;54.30;;;45.20;;
46753;SDS011;32500;50.620;3.400;2023-02-27T05:18:09;52.83;;;44.97;;
46753;SDS011;32500;50.620;3.400;2023-02-27T05:21:25;53.50;;;45.13;;
46753;SDS011;32500;50.620;3.400;2023-02-27T05:23:38;52.73;;;45.17;;
46753;SDS011;32500;50.620;3.400;2023-02-27T05:29:00;51.77;;;45.03;;
46753;SDS011;32500;50.620;3.400;2023-02-27T05:31:34;52.70;;;45.03;;
46753;SDS011;32500;50.620;3.400;2023-02-27T05:34:09;53.33;;;45.13;;
46753;SDS011;32500;50.620;3.400;2023-02-27T05:36:45;54.30;;;45.33;;
46753;SDS011;32500;50.620;3.400;2023-02-27T05:39:32;53.90;;;45.03;;
46753;SDS011;32500;50.620;3.400;2023-02-27T05:42:03;53.13;;;45.23;;
46753;SDS011;32500;50.620;3.400;2023-02-27T05:44:36;52.57;;;45.27;;
46753;SDS011;32500;50.620;3.400;2023-02-27T05:47:11;54.13;;;45.37;;
46753;SDS011;32500;50.620;3.400;2023-02-27T05:49:42;53.00;;;45.03;;
46753;SDS011;32500;50.620;3.400;2023-02-27T05:52:13;52.13;;;45.17;;
46753;SDS011;32500;50.620;3.400;2023-02-27T05:57:21;52.77;;;44.90;;
46753;SDS011;32500;50.620;3.400;2023-02-27T06:00:01;53.83;;;45.00;;
46753;SDS011;32500;50.620;3.400;2023-02-27T06:02:34;53.83;;;45.22;;
46753;SDS011;32500;50.620;3.400;2023-02-27T06:05:00;52.87;;;45.20;;
46753;SDS011;32500;50.620;3.400;2023-02-27T06:07:25;52.93;;;45.37;;
46753;SDS011;32500;50.620;3.400;2023-02-27T06:09:55;53.97;;;45.07;;
46753;SDS011;32500;50.620;3.400;2023-02-27T06:12:21;52.73;;;45.10;;
46753;SDS011;32500;50.620;3.400;2023-02-27T06:14:46;53.43;;;45.27;;
46753;SDS011;32500;50.620;3.400;2023-02-27T06:17:12;53.30;;;45.17;;
46753;SDS011;32500;50.620;3.400;2023-02-27T06:19:37;52.00;;;45.07;;
46753;SDS011;32500;50.620;3.400;2023-02-27T06:22:03;53.17;;;45.27;;
46753;SDS011;32500;50.620;3.400;2023-02-27T06:24:29;53.30;;;45.27;;
46753;SDS011;32500;50.620;3.400;2023-02-27T06:26:54;53.37;;;45.37;;
46753;SDS011;32500;50.620;3.400;2023-02-27T06:29:20;53.00;;;45.20;;
46753;SDS011;32500;50.620;3.400;2023-02-27T06:31:46;52.40;;;45.07;;
46753;SDS011;32500;50.620;3.400;2023-02-27T06:34:11;53.33;;;45.47;;
46753;SDS011;32500;50.620;3.400;2023-02-27T06:36:37;54.20;;;46.00;;
46753;SDS011;32500;50.620;3.400;2023-02-27T06:39:03;53.30;;;45.17;;
46753;SDS011;32500;50.620;3.400;2023-02-27T06:41:29;53.90;;;45.40;;
46753;SDS011;32500;50.620;3.400;2023-02-27T06:43:54;52.40;;;45.07;;
46753;SDS011;32500;50.620;3.400;2023-02-27T06:46:20;53.13;;;45.50;;
46753;SDS011;32500;50.620;3.400;2023-02-27T06:48:46;53.07;;;45.23;;
46753;SDS011;32500;50.620;3.400;2023-02-27T06:51:11;53.00;;;45.20;;
46753;SDS011;32500;50.620;3.400;2023-02-27T06:53:37;52.83;;;44.93;;
46753;SDS011;32500;50.620;3.400;2023-02-27T06:56:03;51.73;;;44.70;;
46753;SDS011;32500;50.620;3.400;2023-02-27T06:58:29;52.33;;;45.20;;
46753;SDS011;32500;50.620;3.400;2023-02-27T07:00:54;53.57;;;45.53;;
46753;SDS011;32500;50.620;3.400;2023-02-27T07:03:23;54.60;;;45.83;;
46753;SDS011;32500;50.620;3.400;2023-02-27T07:05:49;53.70;;;45.30;;
46753;SDS011;32500;50.620;3.400;2023-02-27T07:08:14;52.47;;;45.30;;
46753;SDS011;32500;50.620;3.400;2023-02-27T07:10:41;53.00;;;45.40;;
46753;SDS011;32500;50.620;3.400;2023-02-27T07:13:11;52.33;;;45.27;;
46753;SDS011;32500;50.620;3.400;2023-02-27T07:15:37;51.90;;;45.10;;
46753;SDS011;32500;50.620;3.400;2023-02-27T07:18:03;54.57;;;45.23;;
46753;SDS011;32500;50.620;3.400;2023-02-27T07:20:29;53.67;;;45.63;;
46753;SDS011;32500;50.620;3.400;2023-02-27T07:22:54;52.03;;;44.80;;
46753;SDS011;32500;50.620;3.400;2023-02-27T07:25:20;52.70;;;45.43;;
46753;SDS011;32500;50.620;3.400;2023-02-27T07:27:46;52.70;;;45.10;;
46753;SDS011;32500;50.620;3.400;2023-02-27T07:30:13;51.97;;;45.10;;
46753;SDS011;32500;50.620;3.400;2023-02-27T07:32:39;52.77;;;45.50;;
46753;SDS011;32500;50.620;3.400;2023-02-27T07:35:05;53.90;;;45.43;;
46753;SDS011;32500;50.620;3.400;2023-02-27T07:37:31;53.70;;;45.30;;
46753;SDS011;32500;50.620;3.400;2023-02-27T07:39:57;52.97;;;45.47;;
46753;SDS011;32500;50.620;3.400;2023-02-27T07:42:23;52.70;;;45.23;;
46753;SDS011;32500;50.620;3.400;2023-02-27T07:44:49;53.33;;;45.33;;
46753;SDS011;32500;50.620;3.400;2023-02-27T07:47:14;53.47;;;45.80;;
46753;SDS011;32500;50.620;3.400;2023-02-27T07:49:41;52.50;;;45.47;;
46753;SDS011;32500;50.620;3.400;2023-02-27T07:52:07;54.20;;;45.60;;
46753;SDS011;32500;50.620;3.400;2023-02-27T07:54:33;53.03;;;45.43;;
46753;SDS011;32500;50.620;3.400;2023-02-27T07:57:01;53.87;;;45.30;;
46753;SDS011;32500;50.620;3.400;2023-02-27T07:59:27;52.10;;;45.23;;
46753;SDS011;32500;50.620;3.400;2023-02-27T08:01:53;54.57;;;45.57;;
46753;SDS011;32500;50.620;3.400;2023-02-27T08:04:19;52.37;;;45.00;;
46753;SDS011;32500;50.620;3.400;2023-02-27T08:06:44;53.93;;;45.70;;
46753;SDS011;32500;50.620;3.400;2023-02-27T08:09:10;55.20;;;45.47;;
46753;SDS011;32500;50.620;3.400;2023-02-27T08:11:36;54.03;;;46.07;;
46753;SDS011;32500;50.620;3.400;2023-02-27T08:14:01;52.60;;;45.40;;
46753;SDS011;32500;50.620;3.400;2023-02-27T08:16:28;53.10;;;45.67;;
46753;SDS011;32500;50.620;3.400;2023-02-27T08:18:54;52.73;;;45.20;;
46753;SDS011;32500;50.620;3.400;2023-02-27T08:21:20;52.90;;;45.57;;
46753;SDS011;32500;50.620;3.400;2023-02-27T08:23:46;53.13;;;45.50;;
46753;SDS011;32500;50.620;3.400;2023-02-27T08:26:11;53.13;;;45.53;;
46753;SDS011;32500;50.620;3.400;2023-02-27T08:28:37;54.37;;;45.67;;
46753;SDS011;32500;50.620;3.400;2023-02-27T08:31:03;54.63;;;45.80;;
46753;SDS011;32500;50.620;3.400;2023-02-27T08:33:30;54.43;;;45.70;;
46753;SDS011;32500;50.620;3.400;2023-02-27T08:35:57;55.03;;;45.87;;
46753;SDS011;32500;50.620;3.400;2023-02-27T08:38:23;52.80;;;45.65;;
46753;SDS011;32500;50.620;3.400;2023-02-27T08:40:49;53.35;;;45.60;;
46753;SDS011;32500;50.620;3.400;2023-02-27T08:43:19;53.13;;;45.43;;
46753;SDS011;32500;50.620;3.400;2023-02-27T08:45:46;56.83;;;46.10;;
46753;SDS011;32500;50.620;3.400;2023-02-27T08:48:12;52.80;;;45.57;;
46753;SDS011;32500;50.620;3.400;2023-02-27T08:50:39;54.47;;;45.60;;
46753;SDS011;32500;50.620;3.400;2023-02-27T08:53:06;53.23;;;45.83;;
46753;SDS011;32500;50.620;3.400;2023-02-27T08:55:32;54.47;;;45.88;;
46753;SDS011;32500;50.620;3.400;2023-02-27T08:57:57;54.03;;;45.88;;
46753;SDS011;32500;50.620;3.400;2023-02-27T09:00:23;53.13;;;45.58;;
46753;SDS011;32500;50.620;3.400;2023-02-27T09:02:50;53.93;;;45.83;;
46753;SDS011;32500;50.620;3.400;2023-02-27T09:05:16;54.08;;;45.72;;
46753;SDS011;32500;50.620;3.400;2023-02-27T09:07:42;53.47;;;45.60;;
46753;SDS011;32500;50.620;3.400;2023-02-27T09:10:07;53.87;;;46.00;;
46753;SDS011;32500;50.620;3.400;2023-02-27T09:12:34;53.57;;;45.43;;
46753;SDS011;32500;50.620;3.400;2023-02-27T09:14:59;53.33;;;45.70;;
46753;SDS011;32500;50.620;3.400;2023-02-27T09:17:25;53.53;;;45.42;;
46753;SDS011;32500;50.620;3.400;2023-02-27T09:19:51;55.58;;;46.53;;
46753;SDS011;32500;50.620;3.400;2023-02-27T09:22:17;55.17;;;45.97;;
46753;SDS011;32500;50.620;3.400;2023-02-27T09:24:43;54.53;;;45.93;;
46753;SDS011;32500;50.620;3.400;2023-02-27T09:27:09;53.87;;;46.00;;
46753;SDS011;32500;50.620;3.400;2023-02-27T09:29:35;54.30;;;46.17;;
46753;SDS011;32500;50.620;3.400;2023-02-27T09:32:01;54.88;;;46.10;;
46753;SDS011;32500;50.620;3.400;2023-02-27T09:34:26;53.83;;;45.70;;
46753;SDS011;32500;50.620;3.400;2023-02-27T09:36:52;53.63;;;45.88;;
46753;SDS011;32500;50.620;3.400;2023-02-27T09:39:18;55.38;;;46.22;;
46753;SDS011;32500;50.620;3.400;2023-02-27T09:41:49;54.40;;;46.03;;
46753;SDS011;32500;50.620;3.400;2023-02-27T09:46:58;54.37;;;46.00;;
46753;SDS011;32500;50.620;3.400;2023-02-27T09:49:25;55.45;;;46.33;;
46753;SDS011;32500;50.620;3.400;2023-02-27T09:51:56;54.83;;;46.40;;
46753;SDS011;32500;50.620;3.400;2023-02-27T09:54:22;54.85;;;46.15;;
46753;SDS011;32500;50.620;3.400;2023-02-27T09:56:56;55.33;;;46.10;;
46753;SDS011;32500;50.620;3.400;2023-02-27T09:59:37;53.30;;;45.63;;
46753;SDS011;32500;50.620;3.400;2023-02-27T10:02:14;54.95;;;46.25;;
46753;SDS011;32500;50.620;3.400;2023-02-27T10:07:30;55.50;;;46.03;;
46753;SDS011;32500;50.620;3.400;2023-02-27T10:10:36;54.53;;;45.83;;
46753;SDS011;32500;50.620;3.400;2023-02-27T10:16:12;56.50;;;46.83;;
46753;SDS011;32500;50.620;3.400;2023-02-27T10:21:37;55.70;;;46.22;;
46753;SDS011;32500;50.620;3.400;2023-02-27T10:26:47;55.70;;;45.95;;
46753;SDS011;32500;50.620;3.400;2023-02-27T10:29:27;56.15;;;46.15;;
46753;SDS011;32500;50.620;3.400;2023-02-27T10:32:00;55.95;;;46.08;;
46753;SDS011;32500;50.620;3.400;2023-02-27T10:34:29;54.80;;;46.13;;
46753;SDS011;32500;50.620;3.400;2023-02-27T10:36:58;54.97;;;46.03;;
46753;SDS011;32500;50.620;3.400;2023-02-27T10:39:26;55.53;;;46.20;;
46753;SDS011;32500;50.620;3.400;2023-02-27T10:41:53;55.13;;;45.92;;
46753;SDS011;32500;50.620;3.400;2023-02-27T10:44:24;58.30;;;46.20;;
46753;SDS011;32500;50.620;3.400;2023-02-27T10:46:50;55.40;;;46.00;;
46753;SDS011;32500;50.620;3.400;2023-02-27T10:49:17;56.30;;;46.15;;
46753;SDS011;32500;50.620;3.400;2023-02-27T10:51:45;55.22;;;45.97;;
46753;SDS011;32500;50.620;3.400;2023-02-27T10:54:27;55.67;;;45.85;;
46753;SDS011;32500;50.620;3.400;2023-02-27T10:56:53;55.90;;;46.10;;
46753;SDS011;32500;50.620;3.400;2023-02-27T11:01:55;54.95;;;45.63;;
46753;SDS011;32500;50.620;3.400;2023-02-27T11:04:28;55.63;;;46.13;;
46753;SDS011;32500;50.620;3.400;2023-02-27T11:07:06;56.42;;;46.03;;
46753;SDS011;32500;50.620;3.400;2023-02-27T11:09:36;56.13;;;46.25;;
46753;SDS011;32500;50.620;3.400;2023-02-27T11:12:09;56.15;;;46.20;;
46753;SDS011;32500;50.620;3.400;2023-02-27T11:14:53;55.67;;;46.08;;
46753;SDS011;32500;50.620;3.400;2023-02-27T11:17:53;56.00;;;46.22;;
46753;SDS011;32500;50.620;3.400;2023-02-27T11:23:04;55.75;;;45.85;;
46753;SDS011;32500;50.620;3.400;2023-02-27T11:25:42;57.35;;;46.05;;
46753;SDS011;32500;50.620;3.400;2023-02-27T11:28:25;56.00;;;46.10;;
46753;SDS011;32500;50.620;3.400;2023-02-27T11:31:06;56.10;;;46.08;;
46753;SDS011;32500;50.620;3.400;2023-02-27T11:33:50;56.65;;;46.17;;
46753;SDS011;32500;50.620;3.400;2023-02-27T11:36:18;55.67;;;45.95;;
46753;SDS011;32500;50.620;3.400;2023-02-27T11:38:53;56.65;;;46.22;;
46753;SDS011;32500;50.620;3.400;2023-02-27T11:41:28;56.72;;;46.25;;
46753;SDS011;32500;50.620;3.400;2023-02-27T11:43:56;55.75;;;45.70;;
46753;SDS011;32500;50.620;3.400;2023-02-27T11:46:23;56.58;;;46.22;;
46753;SDS011;32500;50.620;3.400;2023-02-27T11:48:59;56.67;;;45.92;;
46753;SDS011;32500;50.620;3.400;2023-02-27T11:51:55;56.67;;;46.25;;
46753;SDS011;32500;50.620;3.400;2023-02-27T11:57:09;57.13;;;46.05;;
46753;SDS011;32500;50.620;3.400;2023-02-27T12:02:16;55.95;;;46.03;;
46753;SDS011;32500;50.620;3.400;2023-02-27T12:07:43;56.33;;;45.92;;
46753;SDS011;32500;50.620;3.400;2023-02-27T12:11:31;57.35;;;46.15;;
46753;SDS011;32500;50.620;3.400;2023-02-27T12:13:28;56.20;;;46.05;;
46753;SDS011;32500;50.620;3.400;2023-02-27T12:18:50;56.22;;;45.92;;
46753;SDS011;32500;50.620;3.400;2023-02-27T12:21:23;56.53;;;46.05;;
46753;SDS011;32500;50.620;3.400;2023-02-27T12:24:16;56.03;;;46.05;;
46753;SDS011;32500;50.620;3.400;2023-02-27T12:29:35;55.58;;;45.85;;
46753;SDS011;32500;50.620;3.400;2023-02-27T12:35:23;56.97;;;46.17;;
46753;SDS011;32500;50.620;3.400;2023-02-27T12:37:52;56.90;;;45.93;;
46753;SDS011;32500;50.620;3.400;2023-02-27T12:40:20;56.65;;;46.33;;
46753;SDS011;32500;50.620;3.400;2023-02-27T12:48:17;56.00;;;46.17;;
46753;SDS011;32500;50.620;3.400;2023-02-27T12:56:16;56.90;;;46.20;;
46753;SDS011;32500;50.620;3.400;2023-02-27T13:04:02;57.30;;;45.95;;
46753;SDS011;32500;50.620;3.400;2023-02-27T13:07:00;56.60;;;46.05;;
46753;SDS011;32500;50.620;3.400;2023-02-27T13:12:53;57.13;;;46.25;;
46753;SDS011;32500;50.620;3.400;2023-02-27T13:15:43;57.78;;;46.42;;
46753;SDS011;32500;50.620;3.400;2023-02-27T13:20:59;56.88;;;46.38;;
46753;SDS011;32500;50.620;3.400;2023-02-27T13:23:38;58.10;;;46.35;;
46753;SDS011;32500;50.620;3.400;2023-02-27T13:26:15;57.15;;;46.10;;
46753;SDS011;32500;50.620;3.400;2023-02-27T13:28:46;56.95;;;45.75;;
46753;SDS011;32500;50.620;3.400;2023-02-27T13:37:00;57.50;;;45.95;;
46753;SDS011;32500;50.620;3.400;2023-02-27T13:39:49;57.17;;;46.33;;
46753;SDS011;32500;50.620;3.400;2023-02-27T13:50:49;57.53;;;46.15;;
46753;SDS011;32500;50.620;3.400;2023-02-27T13:52:49;58.35;;;46.55;;
46753;SDS011;32500;50.620;3.400;2023-02-27T13:55:26;58.08;;;46.40;;
46753;SDS011;32500;50.620;3.400;2023-02-27T13:58:00;57.45;;;46.33;;
46753;SDS011;32500;50.620;3.400;2023-02-27T14:00:31;57.13;;;46.15;;
46753;SDS011;32500;50.620;3.400;2023-02-27T14:03:15;57.08;;;46.53;;
46753;SDS011;32500;50.620;3.400;2023-02-27T14:05:44;58.20;;;46.40;;
46753;SDS011;32500;50.620;3.400;2023-02-27T14:11:00;57.38;;;46.28;;
46753;SDS011;32500;50.620;3.400;2023-02-27T14:16:56;57.55;;;46.35;;
46753;SDS011;32500;50.620;3.400;2023-02-27T14:24:37;57.45;;;46.35;;
46753;SDS011;32500;50.620;3.400;2023-02-27T14:27:05;57.60;;;46.42;;
46753;SDS011;32500;50.620;3.400;2023-02-27T14:29:42;57.47;;;46.35;;
46753;SDS011;32500;50.620;3.400;2023-02-27T14:32:13;58.15;;;46.85;;
46753;SDS011;32500;50.620;3.400;2023-02-27T14:34:44;57.70;;;46.08;;
46753;SDS011;32500;50.620;3.400;2023-02-27T14:37:12;58.03;;;46.20;;
46753;SDS011;32500;50.620;3.400;2023-02-27T14:39:41;58.40;;;46.67;;
46753;SDS011;32500;50.620;3.400;2023-02-27T14:44:52;57.15;;;46.15;;
46753;SDS011;32500;50.620;3.400;2023-02-27T14:47:21;57.13;;;46.13;;
46753;SDS011;32500;50.620;3.400;2023-02-27T14:49:54;57.50;;;46.45;;
46753;SDS011;32500;50.620;3.400;2023-02-27T14:54:48;58.08;;;46.25;;
46753;SDS011;32500;50.620;3.400;2023-02-27T14:57:22;57.60;;;46.38;;
46753;SDS011;32500;50.620;3.400;2023-02-27T14:59:51;58.13;;;46.50;;
46753;SDS011;32500;50.620;3.400;2023-02-27T15:02:24;58.35;;;46.22;;
46753;SDS011;32500;50.620;3.400;2023-02-27T15:07:40;57.22;;;46.13;;
46753;SDS011;32500;50.620;3.400;2023-02-27T15:10:14;57.40;;;46.42;;
46753;SDS011;32500;50.620;3.400;2023-02-27T15:12:44;57.38;;;46.20;;
46753;SDS011;32500;50.620;3.400;2023-02-27T15:15:15;58.25;;;46.75;;
46753;SDS011;32500;50.620;3.400;2023-02-27T15:17:44;57.65;;;46.45;;
46753;SDS011;32500;50.620;3.400;2023-02-27T15:22:55;57.60;;;46.50;;
46753;SDS011;32500;50.620;3.400;2023-02-27T15:25:29;59.38;;;46.25;;
46753;SDS011;32500;50.620;3.400;2023-02-27T15:28:01;58.00;;;46.58;;
46753;SDS011;32500;50.620;3.400;2023-02-27T15:30:38;58.05;;;46.50;;
46753;SDS011;32500;50.620;3.400;2023-02-27T15:33:04;58.97;;;46.90;;
46753;SDS011;32500;50.620;3.400;2023-02-27T15:35:40;60.10;;;47.17;;
46753;SDS011;32500;50.620;3.400;2023-02-27T15:38:21;61.17;;;47.10;;
46753;SDS011;32500;50.620;3.400;2023-02-27T15:40:49;60.28;;;47.13;;
46753;SDS011;32500;50.620;3.400;2023-02-27T15:43:15;60.53;;;47.22;;
46753;SDS011;32500;50.620;3.400;2023-02-27T15:45:41;61.53;;;47.65;;
46753;SDS011;32500;50.620;3.400;2023-02-27T15:48:08;60.33;;;47.10;;
46753;SDS011;32500;50.620;3.400;2023-02-27T15:50:43;60.20;;;47.05;;
46753;SDS011;32500;50.620;3.400;2023-02-27T15:53:18;59.42;;;46.80;;
46753;SDS011;32500;50.620;3.400;2023-02-27T15:55:50;60.35;;;47.17;;
46753;SDS011;32500;50.620;3.400;2023-02-27T15:58:28;62.15;;;47.35;;
46753;SDS011;32500;50.620;3.400;2023-02-27T16:03:36;59.38;;;47.05;;
46753;SDS011;32500;50.620;3.400;2023-02-27T16:06:16;61.15;;;46.85;;
46753;SDS011;32500;50.620;3.400;2023-02-27T16:12:17;58.70;;;46.75;;
46753;SDS011;32500;50.620;3.400;2023-02-27T16:14:45;58.95;;;47.00;;
46753;SDS011;32500;50.620;3.400;2023-02-27T16:17:21;59.28;;;46.70;;
46753;SDS011;32500;50.620;3.400;2023-02-27T16:19:49;59.03;;;46.80;;
46753;SDS011;32500;50.620;3.400;2023-02-27T16:22:15;58.75;;;46.70;;
46753;SDS011;32500;50.620;3.400;2023-02-27T16:24:43;58.50;;;46.47;;
46753;SDS011;32500;50.620;3.400;2023-02-27T16:27:25;58.28;;;46.30;;
46753;SDS011;32500;50.620;3.400;2023-02-27T16:29:54;58.88;;;46.95;;
46753;SDS011;32500;50.620;3.400;2023-02-27T16:32:27;59.28;;;46.75;;
46753;SDS011;32500;50.620;3.400;2023-02-27T16:37:39;58.63;;;46.67;;
46753;SDS011;32500;50.620;3.400;2023-02-27T16:40:17;58.33;;;46.35;;
46753;SDS011;32500;50.620;3.400;2023-02-27T16:42:46;57.78;;;46.45;;
46753;SDS011;32500;50.620;3.400;2023-02-27T16:45:14;58.25;;;46.60;;
46753;SDS011;32500;50.620;3.400;2023-02-27T16:47:41;57.03;;;46.15;;
46753;SDS011;32500;50.620;3.400;2023-02-27T16:50:11;57.92;;;46.53;;
46753;SDS011;32500;50.620;3.400;2023-02-27T16:52:44;58.17;;;46.90;;
46753;SDS011;32500;50.620;3.400;2023-02-27T16:55:10;58.95;;;47.05;;
46753;SDS011;32500;50.620;3.400;2023-02-27T16:57:36;57.22;;;46.42;;
46753;SDS011;32500;50.620;3.400;2023-02-27T17:00:02;57.80;;;46.42;;
46753;SDS011;32500;50.620;3.400;2023-02-27T17:02:32;57.85;;;46.72;;
46753;SDS011;32500;50.620;3.400;2023-02-27T17:04:58;57.40;;;46.75;;
46753;SDS011;32500;50.620;3.400;2023-02-27T17:07:24;58.35;;;46.72;;
46753;SDS011;32500;50.620;3.400;2023-02-27T17:09:50;57.72;;;46.63;;
46753;SDS011;32500;50.620;3.400;2023-02-27T17:12:16;57.47;;;46.67;;
46753;SDS011;32500;50.620;3.400;2023-02-27T17:14:41;57.58;;;46.78;;
46753;SDS011;32500;50.620;3.400;2023-02-27T17:17:07;58.55;;;46.85;;
46753;SDS011;32500;50.620;3.400;2023-02-27T17:19:34;57.92;;;47.00;;
46753;SDS011;32500;50.620;3.400;2023-02-27T17:22:00;57.58;;;46.95;;